sensor_id;sensor_type;location;lat;lon;timestamp;temperature;humidity
27072;DHT22;14613;46.308;25.288;2022-09-03T00:00:59;16.50;90.00
27072;DHT22;14613;46.308;25.288;2022-09-03T00:03:33;16.50;90.00
27072;DHT22;14613;46.308;25.288;2022-09-03T00:11:34;16.50;90.10
27072;DHT22;14613;46.308;25.288;2022-09-03T00:14:15;16.50;90.20
27072;DHT22;14613;46.308;25.288;2022-09-03T00:17:09;16.50;90.20
27072;DHT22;14613;46.308;25.288;2022-09-03T00:19:40;16.50;90.30
27072;DHT22;14613;46.308;25.288;2022-09-03T00:22:14;16.50;90.20
27072;DHT22;14613;46.308;25.288;2022-09-03T00:24:41;16.60;90.20
27072;DHT22;14613;46.308;25.288;2022-09-03T00:27:14;16.60;90.20
27072;DHT22;14613;46.308;25.288;2022-09-03T00:30:07;16.60;90.20
27072;DHT22;14613;46.308;25.288;2022-09-03T00:32:45;16.60;90.30
27072;DHT22;14613;46.308;25.288;2022-09-03T00:36:37;16.60;90.20
27072;DHT22;14613;46.308;25.288;2022-09-03T00:38:30;16.70;90.40
27072;DHT22;14613;46.308;25.288;2022-09-03T00:41:18;16.70;90.00
27072;DHT22;14613;46.308;25.288;2022-09-03T00:44:04;16.70;90.10
27072;DHT22;14613;46.308;25.288;2022-09-03T00:57:22;16.70;90.10
27072;DHT22;14613;46.308;25.288;2022-09-03T01:00:06;16.80;90.10
27072;DHT22;14613;46.308;25.288;2022-09-03T01:25:13;16.80;90.20
27072;DHT22;14613;46.308;25.288;2022-09-03T01:28:08;16.80;90.20
27072;DHT22;14613;46.308;25.288;2022-09-03T01:30:44;16.80;90.20
27072;DHT22;14613;46.308;25.288;2022-09-03T01:33:18;16.80;90.20
27072;DHT22;14613;46.308;25.288;2022-09-03T01:44:00;16.90;90.30
27072;DHT22;14613;46.308;25.288;2022-09-03T01:46:40;16.90;90.30
27072;DHT22;14613;46.308;25.288;2022-09-03T01:52:08;16.90;90.40
27072;DHT22;14613;46.308;25.288;2022-09-03T02:00:11;16.90;90.30
27072;DHT22;14613;46.308;25.288;2022-09-03T02:02:39;16.90;90.30
27072;DHT22;14613;46.308;25.288;2022-09-03T02:07:37;16.90;90.10
27072;DHT22;14613;46.308;25.288;2022-09-03T02:10:06;16.90;90.20
27072;DHT22;14613;46.308;25.288;2022-09-03T02:12:34;16.80;90.30
27072;DHT22;14613;46.308;25.288;2022-09-03T02:15:05;16.90;90.40
27072;DHT22;14613;46.308;25.288;2022-09-03T02:17:32;16.90;90.40
27072;DHT22;14613;46.308;25.288;2022-09-03T02:20:06;16.90;90.40
27072;DHT22;14613;46.308;25.288;2022-09-03T02:22:33;16.90;90.40
27072;DHT22;14613;46.308;25.288;2022-09-03T02:24:59;16.90;90.40
27072;DHT22;14613;46.308;25.288;2022-09-03T02:27:26;16.90;90.40
27072;DHT22;14613;46.308;25.288;2022-09-03T02:29:52;16.90;90.40
27072;DHT22;14613;46.308;25.288;2022-09-03T02:32:18;16.90;90.40
27072;DHT22;14613;46.308;25.288;2022-09-03T02:34:43;17.00;90.40
27072;DHT22;14613;46.308;25.288;2022-09-03T02:37:17;17.00;90.40
27072;DHT22;14613;46.308;25.288;2022-09-03T02:39:43;17.00;90.40
27072;DHT22;14613;46.308;25.288;2022-09-03T02:42:11;17.00;90.30
27072;DHT22;14613;46.308;25.288;2022-09-03T02:47:30;17.00;90.30
27072;DHT22;14613;46.308;25.288;2022-09-03T02:49:57;17.00;90.30
27072;DHT22;14613;46.308;25.288;2022-09-03T02:52:23;17.00;90.30
27072;DHT22;14613;46.308;25.288;2022-09-03T02:54:49;17.00;90.30
27072;DHT22;14613;46.308;25.288;2022-09-03T02:57:16;16.90;90.30
27072;DHT22;14613;46.308;25.288;2022-09-03T02:59:42;17.00;90.40
27072;DHT22;14613;46.308;25.288;2022-09-03T03:02:11;17.00;90.40
27072;DHT22;14613;46.308;25.288;2022-09-03T03:04:37;17.00;90.40
27072;DHT22;14613;46.308;25.288;2022-09-03T03:07:05;17.00;90.40
27072;DHT22;14613;46.308;25.288;2022-09-03T03:09:30;17.00;90.40
27072;DHT22;14613;46.308;25.288;2022-09-03T03:11:56;17.00;90.40
27072;DHT22;14613;46.308;25.288;2022-09-03T03:14:22;17.00;90.40
27072;DHT22;14613;46.308;25.288;2022-09-03T03:16:48;17.00;90.30
27072;DHT22;14613;46.308;25.288;2022-09-03T03:19:14;17.00;90.30
27072;DHT22;14613;46.308;25.288;2022-09-03T03:21:40;17.00;90.30
27072;DHT22;14613;46.308;25.288;2022-09-03T03:24:06;16.90;90.30
27072;DHT22;14613;46.308;25.288;2022-09-03T03:26:32;16.80;90.30
27072;DHT22;14613;46.308;25.288;2022-09-03T03:28:59;16.80;90.30
27072;DHT22;14613;46.308;25.288;2022-09-03T03:31:26;16.80;90.40
27072;DHT22;14613;46.308;25.288;2022-09-03T03:33:53;16.80;90.40
27072;DHT22;14613;46.308;25.288;2022-09-03T03:36:20;16.80;90.50
27072;DHT22;14613;46.308;25.288;2022-09-03T03:38:46;16.70;90.50
27072;DHT22;14613;46.308;25.288;2022-09-03T03:41:17;16.70;90.60
27072;DHT22;14613;46.308;25.288;2022-09-03T03:43:44;16.70;90.60
27072;DHT22;14613;46.308;25.288;2022-09-03T03:46:10;16.70;90.60
27072;DHT22;14613;46.308;25.288;2022-09-03T03:48:37;16.70;90.70
27072;DHT22;14613;46.308;25.288;2022-09-03T03:51:05;16.70;90.70
27072;DHT22;14613;46.308;25.288;2022-09-03T03:53:36;16.70;90.80
27072;DHT22;14613;46.308;25.288;2022-09-03T03:56:04;16.70;90.80
27072;DHT22;14613;46.308;25.288;2022-09-03T03:58:31;16.70;90.80
27072;DHT22;14613;46.308;25.288;2022-09-03T04:01:05;16.70;90.80
27072;DHT22;14613;46.308;25.288;2022-09-03T04:03:32;16.70;90.80
27072;DHT22;14613;46.308;25.288;2022-09-03T04:05:58;16.70;90.80
27072;DHT22;14613;46.308;25.288;2022-09-03T04:08:26;16.70;90.80
27072;DHT22;14613;46.308;25.288;2022-09-03T04:10:52;16.80;90.90
27072;DHT22;14613;46.308;25.288;2022-09-03T04:13:18;16.80;90.90
27072;DHT22;14613;46.308;25.288;2022-09-03T04:15:43;16.80;90.90
27072;DHT22;14613;46.308;25.288;2022-09-03T04:18:09;16.80;90.90
27072;DHT22;14613;46.308;25.288;2022-09-03T04:20:35;16.80;90.90
27072;DHT22;14613;46.308;25.288;2022-09-03T04:23:03;16.80;90.90
27072;DHT22;14613;46.308;25.288;2022-09-03T04:25:29;16.90;90.90
27072;DHT22;14613;46.308;25.288;2022-09-03T04:27:55;16.90;90.90
27072;DHT22;14613;46.308;25.288;2022-09-03T04:30:20;16.90;90.90
27072;DHT22;14613;46.308;25.288;2022-09-03T04:32:49;17.00;90.90
27072;DHT22;14613;46.308;25.288;2022-09-03T04:35:19;17.00;90.90
27072;DHT22;14613;46.308;25.288;2022-09-03T04:37:45;17.00;90.80
27072;DHT22;14613;46.308;25.288;2022-09-03T04:40:11;17.00;90.70
27072;DHT22;14613;46.308;25.288;2022-09-03T04:42:37;17.10;90.70
27072;DHT22;14613;46.308;25.288;2022-09-03T04:45:03;17.00;90.70
27072;DHT22;14613;46.308;25.288;2022-09-03T04:47:29;17.00;90.70
27072;DHT22;14613;46.308;25.288;2022-09-03T04:49:54;17.00;90.70
27072;DHT22;14613;46.308;25.288;2022-09-03T04:52:20;17.00;90.80
27072;DHT22;14613;46.308;25.288;2022-09-03T04:54:46;17.00;90.80
27072;DHT22;14613;46.308;25.288;2022-09-03T04:57:12;17.00;90.80
27072;DHT22;14613;46.308;25.288;2022-09-03T04:59:38;17.00;90.80
27072;DHT22;14613;46.308;25.288;2022-09-03T05:02:05;17.00;90.90
27072;DHT22;14613;46.308;25.288;2022-09-03T05:04:31;17.00;90.90
27072;DHT22;14613;46.308;25.288;2022-09-03T05:06:57;17.00;90.90
27072;DHT22;14613;46.308;25.288;2022-09-03T05:09:23;17.00;90.90
27072;DHT22;14613;46.308;25.288;2022-09-03T05:11:49;17.00;90.90
27072;DHT22;14613;46.308;25.288;2022-09-03T05:14:14;17.00;90.90
27072;DHT22;14613;46.308;25.288;2022-09-03T05:16:40;17.00;90.90
27072;DHT22;14613;46.308;25.288;2022-09-03T05:19:06;17.00;90.90
27072;DHT22;14613;46.308;25.288;2022-09-03T05:21:33;17.00;90.80
27072;DHT22;14613;46.308;25.288;2022-09-03T05:24:03;17.10;90.90
27072;DHT22;14613;46.308;25.288;2022-09-03T05:26:31;17.10;90.90
27072;DHT22;14613;46.308;25.288;2022-09-03T05:29:00;17.10;90.80
27072;DHT22;14613;46.308;25.288;2022-09-03T05:31:28;17.10;90.90
27072;DHT22;14613;46.308;25.288;2022-09-03T05:33:56;17.10;90.80
27072;DHT22;14613;46.308;25.288;2022-09-03T05:36:24;17.00;90.80
27072;DHT22;14613;46.308;25.288;2022-09-03T05:38:51;17.10;90.90
27072;DHT22;14613;46.308;25.288;2022-09-03T05:41:19;17.00;91.00
27072;DHT22;14613;46.308;25.288;2022-09-03T05:43:50;17.00;91.00
27072;DHT22;14613;46.308;25.288;2022-09-03T05:46:21;17.10;91.00
27072;DHT22;14613;46.308;25.288;2022-09-03T05:48:50;17.10;91.00
27072;DHT22;14613;46.308;25.288;2022-09-03T05:51:17;17.10;91.00
27072;DHT22;14613;46.308;25.288;2022-09-03T05:53:45;17.10;91.10
27072;DHT22;14613;46.308;25.288;2022-09-03T05:56:13;17.20;91.10
27072;DHT22;14613;46.308;25.288;2022-09-03T05:58:43;17.20;91.10
27072;DHT22;14613;46.308;25.288;2022-09-03T06:01:24;17.20;91.00
27072;DHT22;14613;46.308;25.288;2022-09-03T06:04:01;17.20;91.00
27072;DHT22;14613;46.308;25.288;2022-09-03T06:06:29;17.30;91.00
27072;DHT22;14613;46.308;25.288;2022-09-03T06:08:58;17.30;91.00
27072;DHT22;14613;46.308;25.288;2022-09-03T06:11:25;17.30;91.00
27072;DHT22;14613;46.308;25.288;2022-09-03T06:13:56;17.20;91.00
27072;DHT22;14613;46.308;25.288;2022-09-03T06:16:22;17.30;91.00
27072;DHT22;14613;46.308;25.288;2022-09-03T06:18:49;17.30;91.00
27072;DHT22;14613;46.308;25.288;2022-09-03T06:21:15;17.30;91.00
27072;DHT22;14613;46.308;25.288;2022-09-03T06:23:41;17.30;91.00
27072;DHT22;14613;46.308;25.288;2022-09-03T06:26:12;17.30;91.00
27072;DHT22;14613;46.308;25.288;2022-09-03T06:28:41;17.30;91.10
27072;DHT22;14613;46.308;25.288;2022-09-03T06:31:18;17.30;91.10
27072;DHT22;14613;46.308;25.288;2022-09-03T06:33:44;17.20;91.10
27072;DHT22;14613;46.308;25.288;2022-09-03T06:36:13;17.30;91.20
27072;DHT22;14613;46.308;25.288;2022-09-03T06:38:40;17.30;91.20
27072;DHT22;14613;46.308;25.288;2022-09-03T06:43:36;17.30;91.20
27072;DHT22;14613;46.308;25.288;2022-09-03T06:46:08;17.30;91.20
27072;DHT22;14613;46.308;25.288;2022-09-03T06:48:34;17.30;91.20
27072;DHT22;14613;46.308;25.288;2022-09-03T06:51:03;17.40;91.20
27072;DHT22;14613;46.308;25.288;2022-09-03T06:53:31;17.40;91.20
27072;DHT22;14613;46.308;25.288;2022-09-03T06:56:02;17.40;91.20
27072;DHT22;14613;46.308;25.288;2022-09-03T06:58:30;17.40;91.20
27072;DHT22;14613;46.308;25.288;2022-09-03T07:01:04;17.40;91.20
27072;DHT22;14613;46.308;25.288;2022-09-03T07:03:34;17.40;91.10
27072;DHT22;14613;46.308;25.288;2022-09-03T07:06:18;17.40;91.00
27072;DHT22;14613;46.308;25.288;2022-09-03T07:08:45;17.40;91.10
27072;DHT22;14613;46.308;25.288;2022-09-03T07:11:16;17.40;91.00
27072;DHT22;14613;46.308;25.288;2022-09-03T07:13:45;17.40;91.10
27072;DHT22;14613;46.308;25.288;2022-09-03T07:16:20;17.30;91.20
27072;DHT22;14613;46.308;25.288;2022-09-03T07:18:47;17.30;91.30
27072;DHT22;14613;46.308;25.288;2022-09-03T07:21:16;17.30;91.30
27072;DHT22;14613;46.308;25.288;2022-09-03T07:23:43;17.30;91.30
27072;DHT22;14613;46.308;25.288;2022-09-03T07:26:11;17.30;91.30
27072;DHT22;14613;46.308;25.288;2022-09-03T07:28:39;17.30;91.40
27072;DHT22;14613;46.308;25.288;2022-09-03T07:31:09;17.30;91.50
27072;DHT22;14613;46.308;25.288;2022-09-03T07:33:39;17.30;91.60
27072;DHT22;14613;46.308;25.288;2022-09-03T07:36:08;17.30;91.60
27072;DHT22;14613;46.308;25.288;2022-09-03T07:38:35;17.20;91.60
27072;DHT22;14613;46.308;25.288;2022-09-03T07:41:05;17.20;91.70
27072;DHT22;14613;46.308;25.288;2022-09-03T07:43:37;17.20;91.70
27072;DHT22;14613;46.308;25.288;2022-09-03T07:46:08;17.10;91.90
27072;DHT22;14613;46.308;25.288;2022-09-03T07:48:40;17.10;92.00
27072;DHT22;14613;46.308;25.288;2022-09-03T07:51:07;17.10;92.20
27072;DHT22;14613;46.308;25.288;2022-09-03T07:53:33;17.10;92.30
27072;DHT22;14613;46.308;25.288;2022-09-03T07:56:07;17.10;92.30
27072;DHT22;14613;46.308;25.288;2022-09-03T07:58:34;17.20;92.30
27072;DHT22;14613;46.308;25.288;2022-09-03T08:01:06;17.20;92.20
27072;DHT22;14613;46.308;25.288;2022-09-03T08:03:33;17.20;92.30
27072;DHT22;14613;46.308;25.288;2022-09-03T08:06:05;17.30;92.20
27072;DHT22;14613;46.308;25.288;2022-09-03T08:08:32;17.40;92.00
27072;DHT22;14613;46.308;25.288;2022-09-03T08:11:19;17.40;91.80
27072;DHT22;14613;46.308;25.288;2022-09-03T08:13:47;17.40;91.60
27072;DHT22;14613;46.308;25.288;2022-09-03T08:16:16;17.50;91.70
27072;DHT22;14613;46.308;25.288;2022-09-03T08:18:45;17.50;91.60
27072;DHT22;14613;46.308;25.288;2022-09-03T08:21:17;17.50;91.60
27072;DHT22;14613;46.308;25.288;2022-09-03T08:23:45;17.60;91.60
27072;DHT22;14613;46.308;25.288;2022-09-03T08:26:12;17.60;91.50
27072;DHT22;14613;46.308;25.288;2022-09-03T08:28:38;17.70;91.40
27072;DHT22;14613;46.308;25.288;2022-09-03T08:33:40;17.80;91.40
27072;DHT22;14613;46.308;25.288;2022-09-03T08:36:10;17.80;91.40
27072;DHT22;14613;46.308;25.288;2022-09-03T08:38:37;17.90;91.40
27072;DHT22;14613;46.308;25.288;2022-09-03T08:47:00;18.10;91.20
27072;DHT22;14613;46.308;25.288;2022-09-03T08:49:52;18.10;91.10
27072;DHT22;14613;46.308;25.288;2022-09-03T08:52:40;18.10;90.90
27072;DHT22;14613;46.308;25.288;2022-09-03T08:55:27;18.20;90.90
27072;DHT22;14613;46.308;25.288;2022-09-03T08:58:13;18.20;90.90
27072;DHT22;14613;46.308;25.288;2022-09-03T09:00:47;18.20;90.90
27072;DHT22;14613;46.308;25.288;2022-09-03T09:22:09;18.50;90.40
27072;DHT22;14613;46.308;25.288;2022-09-03T09:24:44;18.50;90.30
27072;DHT22;14613;46.308;25.288;2022-09-03T09:27:14;18.60;90.60
27072;DHT22;14613;46.308;25.288;2022-09-03T09:29:48;18.60;90.10
27072;DHT22;14613;46.308;25.288;2022-09-03T09:32:16;18.60;90.00
27072;DHT22;14613;46.308;25.288;2022-09-03T09:34:44;18.60;90.10
27072;DHT22;14613;46.308;25.288;2022-09-03T09:37:14;18.60;90.10
27072;DHT22;14613;46.308;25.288;2022-09-03T09:39:57;18.70;90.20
27072;DHT22;14613;46.308;25.288;2022-09-03T09:42:24;18.70;90.30
27072;DHT22;14613;46.308;25.288;2022-09-03T09:44:50;18.70;90.30
27072;DHT22;14613;46.308;25.288;2022-09-03T09:47:23;18.70;90.30
27072;DHT22;14613;46.308;25.288;2022-09-03T09:49:58;18.70;90.30
27072;DHT22;14613;46.308;25.288;2022-09-03T09:52:26;18.80;90.20
27072;DHT22;14613;46.308;25.288;2022-09-03T09:57:33;18.80;90.10
27072;DHT22;14613;46.308;25.288;2022-09-03T10:00:07;18.80;90.00
27072;DHT22;14613;46.308;25.288;2022-09-03T10:02:35;18.90;90.00
27072;DHT22;14613;46.308;25.288;2022-09-03T10:05:20;18.80;89.90
27072;DHT22;14613;46.308;25.288;2022-09-03T10:07:57;18.80;89.90
27072;DHT22;14613;46.308;25.288;2022-09-03T10:10:24;18.90;90.00
27072;DHT22;14613;46.308;25.288;2022-09-03T10:12:52;18.90;89.80
27072;DHT22;14613;46.308;25.288;2022-09-03T10:15:36;18.90;89.70
27072;DHT22;14613;46.308;25.288;2022-09-03T10:18:23;18.90;89.70
27072;DHT22;14613;46.308;25.288;2022-09-03T10:21:13;19.00;89.90
27072;DHT22;14613;46.308;25.288;2022-09-03T10:23:50;19.10;90.00
27072;DHT22;14613;46.308;25.288;2022-09-03T10:26:21;19.20;89.60
27072;DHT22;14613;46.308;25.288;2022-09-03T10:28:57;19.20;89.20
27072;DHT22;14613;46.308;25.288;2022-09-03T10:31:44;19.20;88.80
27072;DHT22;14613;46.308;25.288;2022-09-03T10:34:23;19.20;88.70
27072;DHT22;14613;46.308;25.288;2022-09-03T10:45:17;19.40;88.80
27072;DHT22;14613;46.308;25.288;2022-09-03T10:50:45;19.60;88.80
27072;DHT22;14613;46.308;25.288;2022-09-03T11:07:35;20.10;86.60
27072;DHT22;14613;46.308;25.288;2022-09-03T11:10:29;20.20;86.20
27072;DHT22;14613;46.308;25.288;2022-09-03T11:13:07;20.20;85.60
27072;DHT22;14613;46.308;25.288;2022-09-03T11:15:50;20.10;85.30
27072;DHT22;14613;46.308;25.288;2022-09-03T11:18:25;20.10;85.30
27072;DHT22;14613;46.308;25.288;2022-09-03T11:20:55;20.20;85.30
27072;DHT22;14613;46.308;25.288;2022-09-03T11:23:28;20.20;85.20
27072;DHT22;14613;46.308;25.288;2022-09-03T11:25:58;20.20;85.00
27072;DHT22;14613;46.308;25.288;2022-09-03T11:34:48;20.30;84.60
27072;DHT22;14613;46.308;25.288;2022-09-03T11:37:28;20.30;84.30
27072;DHT22;14613;46.308;25.288;2022-09-03T11:40:09;20.30;84.10
27072;DHT22;14613;46.308;25.288;2022-09-03T11:42:40;20.30;83.90
27072;DHT22;14613;46.308;25.288;2022-09-03T11:47:54;20.30;83.90
27072;DHT22;14613;46.308;25.288;2022-09-03T11:50:33;20.30;84.00
27072;DHT22;14613;46.308;25.288;2022-09-03T11:58:29;20.40;83.60
27072;DHT22;14613;46.308;25.288;2022-09-03T12:00:57;20.50;83.60
27072;DHT22;14613;46.308;25.288;2022-09-03T12:03:28;20.50;83.50
27072;DHT22;14613;46.308;25.288;2022-09-03T12:19:55;20.40;83.90
27072;DHT22;14613;46.308;25.288;2022-09-03T12:22:26;20.40;83.10
27072;DHT22;14613;46.308;25.288;2022-09-03T12:24:53;20.40;83.20
27072;DHT22;14613;46.308;25.288;2022-09-03T12:27:21;20.40;83.20
27072;DHT22;14613;46.308;25.288;2022-09-03T12:30:18;20.30;83.10
27072;DHT22;14613;46.308;25.288;2022-09-03T12:32:46;20.30;83.10
27072;DHT22;14613;46.308;25.288;2022-09-03T12:35:14;20.30;83.00
27072;DHT22;14613;46.308;25.288;2022-09-03T12:37:41;20.30;83.10
27072;DHT22;14613;46.308;25.288;2022-09-03T12:40:19;20.30;83.20
27072;DHT22;14613;46.308;25.288;2022-09-03T12:42:45;20.30;83.20
27072;DHT22;14613;46.308;25.288;2022-09-03T12:45:12;20.30;83.20
27072;DHT22;14613;46.308;25.288;2022-09-03T12:47:42;20.30;83.10
27072;DHT22;14613;46.308;25.288;2022-09-03T12:50:22;20.30;83.10
27072;DHT22;14613;46.308;25.288;2022-09-03T12:52:58;20.30;83.10
27072;DHT22;14613;46.308;25.288;2022-09-03T13:03:21;20.30;83.30
27072;DHT22;14613;46.308;25.288;2022-09-03T13:05:53;20.30;83.20
27072;DHT22;14613;46.308;25.288;2022-09-03T13:08:26;20.30;83.10
27072;DHT22;14613;46.308;25.288;2022-09-03T13:10:56;20.30;83.10
27072;DHT22;14613;46.308;25.288;2022-09-03T13:13:24;20.30;83.10
27072;DHT22;14613;46.308;25.288;2022-09-03T13:21:44;20.30;83.00
27072;DHT22;14613;46.308;25.288;2022-09-03T13:24:23;20.30;83.00
27072;DHT22;14613;46.308;25.288;2022-09-03T13:32:02;20.30;82.80
27072;DHT22;14613;46.308;25.288;2022-09-03T13:34:39;20.30;83.30
27072;DHT22;14613;46.308;25.288;2022-09-03T13:37:26;20.40;82.60
27072;DHT22;14613;46.308;25.288;2022-09-03T13:40:08;20.40;82.50
27072;DHT22;14613;46.308;25.288;2022-09-03T13:43:30;20.40;82.50
27072;DHT22;14613;46.308;25.288;2022-09-03T13:45:46;20.50;82.40
27072;DHT22;14613;46.308;25.288;2022-09-03T13:48:19;20.60;82.40
27072;DHT22;14613;46.308;25.288;2022-09-03T13:51:12;20.60;82.10
27072;DHT22;14613;46.308;25.288;2022-09-03T13:54:29;20.60;81.80
27072;DHT22;14613;46.308;25.288;2022-09-03T13:56:49;20.70;81.60
27072;DHT22;14613;46.308;25.288;2022-09-03T14:05:07;20.70;81.30
27072;DHT22;14613;46.308;25.288;2022-09-03T14:07:59;20.70;81.30
27072;DHT22;14613;46.308;25.288;2022-09-03T14:13:13;20.70;81.20
27072;DHT22;14613;46.308;25.288;2022-09-03T14:16:33;20.70;81.20
27072;DHT22;14613;46.308;25.288;2022-09-03T14:18:54;20.70;81.10
27072;DHT22;14613;46.308;25.288;2022-09-03T14:21:33;20.70;81.00
27072;DHT22;14613;46.308;25.288;2022-09-03T14:24:09;20.70;81.10
27072;DHT22;14613;46.308;25.288;2022-09-03T14:26:47;20.70;81.10
27072;DHT22;14613;46.308;25.288;2022-09-03T14:29:15;20.60;81.00
27072;DHT22;14613;46.308;25.288;2022-09-03T14:34:59;20.70;81.00
27072;DHT22;14613;46.308;25.288;2022-09-03T14:50:58;20.70;80.80
27072;DHT22;14613;46.308;25.288;2022-09-03T14:53:53;20.60;80.80
27072;DHT22;14613;46.308;25.288;2022-09-03T15:02:14;20.50;80.60
27072;DHT22;14613;46.308;25.288;2022-09-03T15:07:50;20.40;81.00
27072;DHT22;14613;46.308;25.288;2022-09-03T15:10:38;20.40;81.20
27072;DHT22;14613;46.308;25.288;2022-09-03T15:13:48;20.40;81.20
27072;DHT22;14613;46.308;25.288;2022-09-03T15:30:07;20.30;81.00
27072;DHT22;14613;46.308;25.288;2022-09-03T15:35:33;20.30;81.00
27072;DHT22;14613;46.308;25.288;2022-09-03T15:38:38;20.20;81.10
27072;DHT22;14613;46.308;25.288;2022-09-03T15:41:32;20.20;81.20
27072;DHT22;14613;46.308;25.288;2022-09-03T15:43:58;20.20;81.20
27072;DHT22;14613;46.308;25.288;2022-09-03T15:46:57;20.20;81.10
27072;DHT22;14613;46.308;25.288;2022-09-03T15:52:36;20.20;81.30
27072;DHT22;14613;46.308;25.288;2022-09-03T15:55:11;20.20;81.30
27072;DHT22;14613;46.308;25.288;2022-09-03T16:00:59;20.20;81.20
27072;DHT22;14613;46.308;25.288;2022-09-03T16:09:17;20.10;81.40
27072;DHT22;14613;46.308;25.288;2022-09-03T16:11:58;20.10;81.50
27072;DHT22;14613;46.308;25.288;2022-09-03T16:14:37;20.10;81.50
27072;DHT22;14613;46.308;25.288;2022-09-03T16:17:31;20.10;81.50
27072;DHT22;14613;46.308;25.288;2022-09-03T16:22:31;20.00;81.50
27072;DHT22;14613;46.308;25.288;2022-09-03T16:25:06;20.00;81.50
27072;DHT22;14613;46.308;25.288;2022-09-03T16:30:11;19.90;81.60
27072;DHT22;14613;46.308;25.288;2022-09-03T16:44:08;19.70;82.10
27072;DHT22;14613;46.308;25.288;2022-09-03T16:52:28;19.70;82.70
27072;DHT22;14613;46.308;25.288;2022-09-03T16:58:06;19.60;83.00
27072;DHT22;14613;46.308;25.288;2022-09-03T17:06:40;19.40;83.70
27072;DHT22;14613;46.308;25.288;2022-09-03T17:20:51;19.30;83.80
27072;DHT22;14613;46.308;25.288;2022-09-03T17:37:04;19.00;83.70
27072;DHT22;14613;46.308;25.288;2022-09-03T17:42:59;18.90;83.90
27072;DHT22;14613;46.308;25.288;2022-09-03T17:45:51;18.80;84.00
27072;DHT22;14613;46.308;25.288;2022-09-03T17:48:49;18.80;84.10
27072;DHT22;14613;46.308;25.288;2022-09-03T17:51:40;18.60;84.20
27072;DHT22;14613;46.308;25.288;2022-09-03T17:57:04;18.50;84.80
27072;DHT22;14613;46.308;25.288;2022-09-03T18:00:00;18.40;85.00
27072;DHT22;14613;46.308;25.288;2022-09-03T18:02:54;18.30;85.40
27072;DHT22;14613;46.308;25.288;2022-09-03T18:05:33;18.20;85.70
27072;DHT22;14613;46.308;25.288;2022-09-03T18:08:32;18.10;85.90
27072;DHT22;14613;46.308;25.288;2022-09-03T18:11:10;18.00;86.50
27072;DHT22;14613;46.308;25.288;2022-09-03T18:13:50;17.90;86.80
27072;DHT22;14613;46.308;25.288;2022-09-03T18:16:33;17.80;87.10
27072;DHT22;14613;46.308;25.288;2022-09-03T18:21:58;17.70;87.60
27072;DHT22;14613;46.308;25.288;2022-09-03T18:24:52;17.70;87.60
27072;DHT22;14613;46.308;25.288;2022-09-03T18:27:45;17.70;87.90
27072;DHT22;14613;46.308;25.288;2022-09-03T18:30:32;17.70;87.80
27072;DHT22;14613;46.308;25.288;2022-09-03T18:33:20;17.70;87.80
27072;DHT22;14613;46.308;25.288;2022-09-03T18:36:06;17.70;87.90
27072;DHT22;14613;46.308;25.288;2022-09-03T18:38:51;17.60;88.00
27072;DHT22;14613;46.308;25.288;2022-09-03T18:41:54;17.60;88.10
27072;DHT22;14613;46.308;25.288;2022-09-03T18:44:53;17.60;88.30
27072;DHT22;14613;46.308;25.288;2022-09-03T18:56:50;17.50;88.60
27072;DHT22;14613;46.308;25.288;2022-09-03T19:12:22;17.40;90.20
27072;DHT22;14613;46.308;25.288;2022-09-03T19:24:13;17.40;90.40
27072;DHT22;14613;46.308;25.288;2022-09-03T19:27:09;17.50;90.30
27072;DHT22;14613;46.308;25.288;2022-09-03T19:30:22;17.50;90.40
27072;DHT22;14613;46.308;25.288;2022-09-03T19:33:30;17.50;90.40
27072;DHT22;14613;46.308;25.288;2022-09-03T19:45:54;17.50;90.50
27072;DHT22;14613;46.308;25.288;2022-09-03T19:49:13;17.50;90.50
27072;DHT22;14613;46.308;25.288;2022-09-03T19:52:26;17.50;90.50
27072;DHT22;14613;46.308;25.288;2022-09-03T19:55:18;17.50;90.50
27072;DHT22;14613;46.308;25.288;2022-09-03T19:58:02;17.60;90.50
27072;DHT22;14613;46.308;25.288;2022-09-03T20:00:48;17.50;90.40
27072;DHT22;14613;46.308;25.288;2022-09-03T20:03:33;17.60;90.50
27072;DHT22;14613;46.308;25.288;2022-09-03T20:06:18;17.60;90.50
27072;DHT22;14613;46.308;25.288;2022-09-03T20:09:08;17.60;90.50
27072;DHT22;14613;46.308;25.288;2022-09-03T20:11:55;17.60;90.50
27072;DHT22;14613;46.308;25.288;2022-09-03T20:14:22;17.50;90.50
27072;DHT22;14613;46.308;25.288;2022-09-03T20:39:00;17.50;90.80
27072;DHT22;14613;46.308;25.288;2022-09-03T20:55:42;17.50;90.90
27072;DHT22;14613;46.308;25.288;2022-09-03T20:58:14;17.40;90.90
27072;DHT22;14613;46.308;25.288;2022-09-03T21:06:08;17.40;91.30
27072;DHT22;14613;46.308;25.288;2022-09-03T21:11:38;17.40;91.50
27072;DHT22;14613;46.308;25.288;2022-09-03T21:14:18;17.40;91.40
27072;DHT22;14613;46.308;25.288;2022-09-03T21:19:42;17.50;91.40
27072;DHT22;14613;46.308;25.288;2022-09-03T21:22:22;17.50;91.30
27072;DHT22;14613;46.308;25.288;2022-09-03T21:24:56;17.60;91.30
27072;DHT22;14613;46.308;25.288;2022-09-03T21:27:27;17.50;91.20
27072;DHT22;14613;46.308;25.288;2022-09-03T21:30:07;17.60;91.20
27072;DHT22;14613;46.308;25.288;2022-09-03T21:33:05;17.60;91.30
27072;DHT22;14613;46.308;25.288;2022-09-03T21:35:37;17.60;91.30
27072;DHT22;14613;46.308;25.288;2022-09-03T21:38:06;17.60;91.20
27072;DHT22;14613;46.308;25.288;2022-09-03T21:40:35;17.60;91.20
27072;DHT22;14613;46.308;25.288;2022-09-03T21:43:10;17.60;91.30
27072;DHT22;14613;46.308;25.288;2022-09-03T21:45:54;17.60;91.30
27072;DHT22;14613;46.308;25.288;2022-09-03T21:48:36;17.70;91.40
27072;DHT22;14613;46.308;25.288;2022-09-03T21:51:11;17.70;91.30
27072;DHT22;14613;46.308;25.288;2022-09-03T21:53:49;17.70;91.30
27072;DHT22;14613;46.308;25.288;2022-09-03T21:59:28;17.70;91.30
27072;DHT22;14613;46.308;25.288;2022-09-03T22:04:43;17.60;91.20
27072;DHT22;14613;46.308;25.288;2022-09-03T22:07:22;17.60;91.20
27072;DHT22;14613;46.308;25.288;2022-09-03T22:14:52;17.60;91.50
27072;DHT22;14613;46.308;25.288;2022-09-03T22:17:49;17.60;91.50
27072;DHT22;14613;46.308;25.288;2022-09-03T22:20:24;17.60;91.60
27072;DHT22;14613;46.308;25.288;2022-09-03T22:23:05;17.60;91.50
27072;DHT22;14613;46.308;25.288;2022-09-03T22:25:47;17.60;91.60
27072;DHT22;14613;46.308;25.288;2022-09-03T22:36:52;17.70;91.60
27072;DHT22;14613;46.308;25.288;2022-09-03T22:39:28;17.80;91.50
27072;DHT22;14613;46.308;25.288;2022-09-03T22:42:15;17.80;91.60